Sunday, November 23, 2014, 4:49 PM EST

KW99, Petersburg, Grant County Airport

Location: Petersburg, WV, United States Lat: 38.983
Local Time: 4:49 PM EST (21:49 GMT) Lon: -79.133
Time Zone: US/Eastern Elev: 961 ft

Show me the last for .
Show Decoded

2014-11-23 16:35 METAR KW99 232135Z AUTO 20006KT 10SM CLR 14/03 A2997 RMK AO2 T01440030 =
2014-11-23 16:15 METAR KW99 232115Z AUTO 20008KT 10SM CLR 15/03 A2998 RMK AO2 T01500030 =
2014-11-23 15:55 METAR KW99 232055Z AUTO 20007KT 10SM CLR 16/03 A2998 RMK AO2 T01610028 =
2014-11-23 15:35 METAR KW99 232035Z AUTO 18009KT 10SM CLR 16/03 A2999 RMK AO2 T01620028 =
2014-11-23 15:15 METAR KW99 232015Z AUTO 20007KT 10SM CLR 17/03 A2999 RMK AO2 T01660028 =
2014-11-23 14:55 METAR KW99 231955Z AUTO 20009G14KT 10SM CLR 17/03 A3000 RMK AO2 T01700030 =
2014-11-23 14:35 METAR KW99 231935Z AUTO 21009KT 10SM CLR 17/03 A3000 RMK AO2 T01700031 =
2014-11-23 14:15 METAR KW99 231915Z AUTO 21010G15KT 10SM CLR 17/03 A3000 RMK AO2 T01700033 =
2014-11-23 13:55 METAR KW99 231855Z AUTO 20009G14KT 10SM CLR 17/02 A3002 RMK AO2 T01690024 =
2014-11-23 13:35 METAR KW99 231835Z AUTO 12004KT 10SM CLR 16/M03 A3004 RMK AO2 T01591026 =
2014-11-23 13:15 METAR KW99 231815Z AUTO 05003KT 10SM CLR 15/M03 A3004 RMK AO2 T01501032 =
2014-11-23 12:55 METAR KW99 231755Z AUTO 00000KT 10SM CLR 15/M03 A3006 RMK AO2 T01481032 10148
                 20008 =
2014-11-23 12:35 METAR KW99 231735Z AUTO 00000KT 10SM CLR 14/M04 A3007 RMK AO2 T01351042 =
2014-11-23 12:15 METAR KW99 231715Z AUTO 00000KT 10SM CLR 12/M05 A3009 RMK AO2 T01241050 =
2014-11-23 11:35 METAR KW99 231635Z AUTO 00000KT 10SM CLR 11/M05 A3012 RMK AO2 T01111050 =
2014-11-23 11:15 METAR KW99 231615Z AUTO 00000KT 10SM CLR 10/M05 A3013 RMK AO2 T01031051 =
2014-11-23 10:55 METAR KW99 231555Z AUTO 00000KT 10SM CLR 10/M05 A3014 RMK AO2 T00971047 =
2014-11-23 10:35 METAR KW99 231535Z AUTO 00000KT 10SM CLR 09/M04 A3014 RMK AO2 T00891038 =
2014-11-23 10:15 METAR KW99 231515Z AUTO 00000KT 10SM CLR 08/M03 A3015 RMK AO2 T00791034 =
2014-11-23 09:55 METAR KW99 231455Z AUTO 00000KT 10SM CLR 06/M02 A3016 RMK AO2 T00591024 =
2014-11-23 09:35 METAR KW99 231435Z AUTO 00000KT 10SM CLR 05/M01 A3015 RMK AO2 T00461014 =
2014-11-23 09:15 METAR KW99 231415Z AUTO 00000KT 10SM SCT110 04/M02 A3016 RMK AO2 T00421024 =
2014-11-23 08:55 METAR KW99 231355Z AUTO 00000KT 10SM SCT110 04/M02 A3016 RMK AO2 T00351018 =
2014-11-23 08:35 METAR KW99 231335Z AUTO 00000KT 10SM BKN110 03/M02 A3017 RMK AO2 T00291023 =
2014-11-23 08:15 METAR KW99 231315Z AUTO 00000KT 10SM SCT110 02/M02 A3017 RMK AO2 T00221021 =
2014-11-23 07:55 METAR KW99 231255Z AUTO 00000KT 10SM CLR 01/M03 A3017 RMK AO2 T00121030 =
2014-11-23 07:35 METAR KW99 231235Z AUTO 26003KT 10SM CLR 01/M04 A3017 RMK AO2 T00131037 =
2014-11-23 07:15 METAR KW99 231215Z AUTO 31004KT 10SM CLR 01/M04 A3017 RMK AO2 T00101036 =
2014-11-23 06:55 METAR KW99 231155Z AUTO 00000KT 10SM CLR 01/M03 A3017 RMK AO2 T00111034 10092
                 20010 =
2014-11-23 06:35 METAR KW99 231135Z AUTO 00000KT 10SM CLR 01/M03 A3017 RMK AO2 T00121034 =
2014-11-23 06:15 METAR KW99 231115Z AUTO 00000KT 10SM CLR 02/M04 A3016 RMK AO2 T00161037 =
2014-11-23 05:55 METAR KW99 231055Z AUTO 00000KT 10SM CLR 02/M04 A3016 RMK AO2 T00171041 =
2014-11-23 05:15 METAR KW99 231015Z AUTO 00000KT 10SM CLR 03/M05 A3015 RMK AO2 T00261047 =
2014-11-23 04:55 METAR KW99 230955Z AUTO 32003KT 10SM CLR 02/M05 A3015 RMK AO2 T00181049 =
2014-11-23 04:35 METAR KW99 230935Z AUTO 00000KT 10SM CLR 05/M07 A3014 RMK AO2 T00471068 =
2014-11-23 04:15 METAR KW99 230915Z AUTO 00000KT 10SM CLR 07/M10 A3015 RMK AO2 T00731096 =
2014-11-23 03:55 METAR KW99 230855Z AUTO 00000KT 10SM CLR 08/M09 A3016 RMK AO2 T00751093 =
2014-11-23 03:35 METAR KW99 230835Z AUTO 32003KT 10SM CLR 06/M07 A3017 RMK AO2 T00551067 =
2014-11-23 03:15 METAR KW99 230815Z AUTO 29003KT 10SM CLR 05/M06 A3016 RMK AO2 T00541058 =
2014-11-23 02:55 METAR KW99 230755Z AUTO 21005KT 10SM CLR 08/M09 A3015 RMK AO2 T00791088 =
2014-11-23 02:35 METAR KW99 230735Z AUTO 00000KT 10SM CLR 04/M04 A3016 RMK AO2 T00391045 =
2014-11-23 02:15 METAR KW99 230715Z AUTO 20011G15KT 10SM SCT100 09/M10 A3016 RMK AO2 T00871097 =
2014-11-23 01:55 METAR KW99 230655Z AUTO 30006KT 10SM SCT100 08/M07 A3016 RMK AO2 T00791075 =
2014-11-23 01:35 METAR KW99 230635Z AUTO 19010G16KT 10SM SCT110 09/M10 A3017 RMK AO2 T00861096 =
2014-11-23 01:15 METAR KW99 230615Z AUTO 00000KT 10SM OVC110 06/M05 A3017 RMK AO2 T00581049 =
2014-11-23 00:55 METAR KW99 230555Z AUTO 00000KT 10SM OVC110 07/M07 A3017 RMK AO2 T00721070 10114
                 20043 401661102 =
2014-11-23 00:35 METAR KW99 230535Z AUTO 00000KT 10SM OVC110 08/M08 A3018 RMK AO2 T00761078 =
2014-11-23 00:15 METAR KW99 230515Z AUTO 30003KT 10SM OVC110 05/M05 A3019 RMK AO2 T00481048 =
2014-11-22 23:55 METAR KW99 230455Z AUTO 22006G16KT 10SM OVC110 09/M09 A3019 RMK AO2 T00891094 =
2014-11-22 23:35 METAR KW99 230435Z AUTO 22007KT 170V260 10SM OVC110 07/M08 A3018 RMK AO2
                 T00741084 =
2014-11-22 23:15 METAR KW99 230415Z AUTO 00000KT 10SM OVC110 07/M07 A3018 RMK AO2 T00651071 =
2014-11-22 22:55 METAR KW99 230355Z AUTO 19009KT 10SM OVC110 09/M09 A3018 RMK AO2 T00871095 =
2014-11-22 22:35 METAR KW99 230335Z AUTO 18010G14KT 10SM OVC110 09/M10 A3019 RMK AO2 T00871096 =
2014-11-22 22:15 METAR KW99 230315Z AUTO 19009G15KT 10SM OVC110 09/M10 A3019 RMK AO2 T00871096 =
2014-11-22 21:55 METAR KW99 230255Z AUTO 18012G17KT 10SM SCT110 09/M10 A3020 RMK AO2 T00861097 =
2014-11-22 21:35 METAR KW99 230235Z AUTO 19011KT 10SM BKN100 09/M09 A3020 RMK AO2 T00871095 =
2014-11-22 21:15 METAR KW99 230215Z AUTO 25003KT 10SM BKN100 06/M05 A3019 RMK AO2 T00621055 =
2014-11-22 20:55 METAR KW99 230155Z AUTO 18012G15KT 10SM BKN100 09/M10 A3018 RMK AO2 T00891097 =
2014-11-22 20:35 METAR KW99 230135Z AUTO 18011G16KT 10SM OVC110 09/M09 A3019 RMK AO2 T00891095 =
2014-11-22 20:15 METAR KW99 230115Z AUTO 20006KT 10SM BKN110 04/M05 A3019 RMK AO2 T00431051 =
2014-11-22 19:55 METAR KW99 230055Z AUTO 00000KT 10SM OVC100 07/M06 A3019 RMK AO2 T00701063 =
2014-11-22 19:35 METAR KW99 230035Z AUTO 00000KT 10SM BKN110 10/M09 A3020 RMK AO2 T01001090 =
2014-11-22 19:15 METAR KW99 230015Z AUTO 18009KT 10SM CLR 11/M09 A3020 RMK AO2 T01081093 =
2014-11-22 18:55 METAR KW99 222355Z AUTO 19009KT 10SM SCT110 11/M09 A3020 RMK AO2 T01141091 10166
                 20096 =
2014-11-22 18:35 METAR KW99 222335Z AUTO 19009G14KT 10SM BKN110 12/M09 A3021 RMK AO2 T01211089 =
2014-11-22 18:15 METAR KW99 222315Z AUTO 18009G15KT 10SM BKN110 13/M09 A3021 RMK AO2 T01301088 =
2014-11-22 17:55 METAR KW99 222255Z AUTO 19011KT 10SM BKN110 14/M08 A3021 RMK AO2 T01361085 =
2014-11-22 17:35 METAR KW99 222235Z AUTO 18010KT 10SM OVC110 14/M07 A3020 RMK AO2 T01401072 =
2014-11-22 17:15 METAR KW99 222215Z AUTO 18009KT 10SM OVC100 15/M06 A3020 RMK AO2 T01471056 =
2014-11-22 16:55 METAR KW99 222155Z AUTO 19007KT 10SM BKN100 15/M04 A3020 RMK AO2 T01541045 =

Support USWX by starting your Amazon purchase here.